createdAt,value
2022-12-19T00:01:39.249Z,1.00
2022-12-19T00:04:10.119Z,1.07
2022-12-19T00:06:43.854Z,1.13
2022-12-19T00:09:12.857Z,1.20
2022-12-19T00:11:41.097Z,1.00
2022-12-19T00:14:11.207Z,1.23
2022-12-19T00:16:38.489Z,1.00
2022-12-19T00:19:06.181Z,1.30
2022-12-19T00:21:35.173Z,1.60
2022-12-19T00:24:09.875Z,1.33
2022-12-19T00:26:48.511Z,1.70
2022-12-19T00:29:15.624Z,0.90
2022-12-19T00:31:43.730Z,1.10
2022-12-19T00:34:11.065Z,1.57
2022-12-19T00:36:38.242Z,1.07
2022-12-19T00:39:07.765Z,1.37
2022-12-19T00:41:37.064Z,1.30
2022-12-19T00:44:07.392Z,1.23
2022-12-19T00:46:35.743Z,1.17
2022-12-19T00:49:03.902Z,0.90
2022-12-19T00:51:33.305Z,1.60
2022-12-19T00:54:00.610Z,1.10
2022-12-19T00:56:32.014Z,0.73
2022-12-19T00:59:06.364Z,1.67
2022-12-19T01:01:39.246Z,1.20
2022-12-19T01:06:56.648Z,1.17
2022-12-19T01:09:28.249Z,0.97
2022-12-19T01:12:13.899Z,1.23
2022-12-19T01:14:41.029Z,1.10
2022-12-19T01:17:08.135Z,1.00
2022-12-19T01:19:40.378Z,1.30
2022-12-19T01:22:11.760Z,1.13
2022-12-19T01:24:38.979Z,1.17
2022-12-19T01:27:06.240Z,1.20
2022-12-19T01:29:34.677Z,0.90
2022-12-19T01:32:04.916Z,0.80
2022-12-19T01:34:32.071Z,1.27
2022-12-19T01:36:59.262Z,0.90
2022-12-19T01:39:26.852Z,1.20
2022-12-19T01:41:58.366Z,1.20
2022-12-19T01:44:26.400Z,1.00
2022-12-19T01:46:57.767Z,1.23
2022-12-19T01:49:34.422Z,1.07
2022-12-19T01:52:04.976Z,1.30
2022-12-19T01:54:35.763Z,0.90
2022-12-19T01:57:06.741Z,1.20
2022-12-19T01:59:39.235Z,0.93
2022-12-19T02:02:33.256Z,1.60
2022-12-19T02:05:04.306Z,1.10
2022-12-19T02:07:32.926Z,1.27
2022-12-19T02:10:00.485Z,1.37
2022-12-19T02:12:31.423Z,1.07
2022-12-19T02:15:02.693Z,1.10
2022-12-19T02:17:57.473Z,1.00
2022-12-19T02:20:42.645Z,1.30
2022-12-19T02:23:15.556Z,0.90
2022-12-19T02:26:23.553Z,1.10
2022-12-19T02:28:56.467Z,0.90
2022-12-19T02:31:36.577Z,0.83
2022-12-19T02:34:16.175Z,0.90
2022-12-19T02:36:51.580Z,0.77
2022-12-19T02:39:33.776Z,0.93
2022-12-19T02:42:02.290Z,0.90
2022-12-19T02:44:50.989Z,1.30
2022-12-19T02:47:21.213Z,0.90
2022-12-19T02:49:48.736Z,0.90
2022-12-19T02:52:21.908Z,1.10
2022-12-19T02:54:52.126Z,0.93
2022-12-19T02:58:03.294Z,0.90
2022-12-19T03:00:32.007Z,1.00
2022-12-19T03:03:15.466Z,0.67
2022-12-19T03:06:04.640Z,0.83
2022-12-19T03:08:42.357Z,0.70
2022-12-19T03:11:13.715Z,1.00
2022-12-19T03:13:43.576Z,0.90
2022-12-19T03:16:12.238Z,0.97
2022-12-19T03:18:40.162Z,1.20
2022-12-19T03:21:29.310Z,1.10
2022-12-19T03:23:58.922Z,1.00
2022-12-19T03:26:30.765Z,0.90
2022-12-19T03:29:03.379Z,0.80
2022-12-19T03:31:33.398Z,0.90
2022-12-19T03:34:10.478Z,0.93
2022-12-19T03:36:45.544Z,1.03
2022-12-19T03:39:14.801Z,0.87
2022-12-19T03:42:03.334Z,1.10
2022-12-19T03:44:37.386Z,0.83
2022-12-19T03:47:23.669Z,1.23
2022-12-19T03:49:52.210Z,1.03
2022-12-19T03:52:30.047Z,0.80
2022-12-19T03:55:23.082Z,1.37
2022-12-19T03:58:22.412Z,1.20
2022-12-19T04:00:51.391Z,1.00
2022-12-19T04:03:20.837Z,1.00
2022-12-19T04:05:49.580Z,1.00
2022-12-19T04:08:17.632Z,0.87
2022-12-19T04:10:51.775Z,0.87
2022-12-19T04:13:25.150Z,1.00
2022-12-19T04:16:06.657Z,1.30
2022-12-19T04:18:34.913Z,0.80
2022-12-19T04:21:17.921Z,1.03
2022-12-19T04:23:57.382Z,0.93
2022-12-19T04:26:25.975Z,1.10
2022-12-19T04:29:00.741Z,1.00
2022-12-19T04:31:27.898Z,1.23
2022-12-19T04:33:55.062Z,0.80
2022-12-19T04:36:22.268Z,1.00
2022-12-19T04:38:49.462Z,1.10
2022-12-19T04:41:16.595Z,0.87
2022-12-19T04:43:43.729Z,0.97
2022-12-19T04:46:10.926Z,0.93
2022-12-19T04:48:38.128Z,1.00
2022-12-19T04:51:05.727Z,1.13
2022-12-19T04:53:33.506Z,0.90
2022-12-19T04:56:02.568Z,1.20
2022-12-19T04:58:30.173Z,1.13
2022-12-19T05:01:04.800Z,1.30
2022-12-19T05:03:33.243Z,0.90
2022-12-19T05:06:08.334Z,1.00
2022-12-19T05:08:37.027Z,1.30
2022-12-19T05:11:04.664Z,1.20
2022-12-19T05:13:32.537Z,1.50
2022-12-19T05:16:02.151Z,0.90
2022-12-19T05:18:30.109Z,1.07
2022-12-19T05:20:57.755Z,0.80
2022-12-19T05:23:25.091Z,0.93
2022-12-19T05:25:52.443Z,0.90
2022-12-19T05:28:19.844Z,1.30
2022-12-19T05:30:52.076Z,1.10
2022-12-19T05:33:19.709Z,1.33
2022-12-19T05:35:49.477Z,1.10
2022-12-19T05:38:16.589Z,1.33
2022-12-19T05:40:43.724Z,1.20
2022-12-19T05:43:10.893Z,1.20
2022-12-19T05:45:40.075Z,1.27
2022-12-19T05:48:07.214Z,1.03
2022-12-19T05:50:37.203Z,1.10
2022-12-19T05:53:04.396Z,1.07
2022-12-19T05:55:31.859Z,1.30
2022-12-19T05:57:58.987Z,1.20
2022-12-19T06:00:26.235Z,1.10
2022-12-19T06:02:53.449Z,1.40
2022-12-19T06:05:20.696Z,0.90
2022-12-19T06:07:48.119Z,1.00
2022-12-19T06:10:15.412Z,0.93
2022-12-19T06:12:42.579Z,1.30
2022-12-19T06:15:10.312Z,0.90
2022-12-19T06:17:37.708Z,1.30
2022-12-19T06:20:05.480Z,1.20
2022-12-19T06:22:34.142Z,1.27
2022-12-19T06:25:01.331Z,1.20
2022-12-19T06:27:28.537Z,1.17
2022-12-19T06:29:55.776Z,1.10
2022-12-19T06:32:23.046Z,1.40
2022-12-19T06:35:05.623Z,1.50
2022-12-19T06:37:32.986Z,1.53
2022-12-19T06:40:00.348Z,2.00
2022-12-19T06:42:27.631Z,2.07
2022-12-19T06:44:56.559Z,1.83
2022-12-19T06:47:24.697Z,2.20
2022-12-19T06:49:51.977Z,1.80
2022-12-19T06:52:19.443Z,2.20
2022-12-19T06:54:46.682Z,2.40
2022-12-19T06:57:13.917Z,2.97
2022-12-19T06:59:41.083Z,2.90
2022-12-19T07:02:27.742Z,3.47
2022-12-19T07:05:06.953Z,3.20
2022-12-19T07:07:34.409Z,3.80
2022-12-19T07:10:01.710Z,3.50
2022-12-19T07:12:29.032Z,4.07
2022-12-19T07:14:56.403Z,4.87
2022-12-19T07:17:25.787Z,3.90
2022-12-19T07:19:57.834Z,5.03
2022-12-19T07:22:29.381Z,4.43
2022-12-19T07:24:57.762Z,4.67
2022-12-19T07:27:29.727Z,5.10
2022-12-19T07:30:01.217Z,5.40
2022-12-19T07:32:28.398Z,7.13
2022-12-19T07:34:55.638Z,6.77
2022-12-19T07:37:22.955Z,6.80
2022-12-19T07:39:50.199Z,6.77
2022-12-19T07:42:17.488Z,7.97
2022-12-19T07:44:44.717Z,7.47
2022-12-19T07:47:31.797Z,6.93
2022-12-19T07:50:13.536Z,6.80
2022-12-19T07:53:00.748Z,6.67
2022-12-19T07:55:51.843Z,6.87
2022-12-19T07:58:38.927Z,6.97
2022-12-19T08:01:29.177Z,7.63
2022-12-19T08:04:16.575Z,7.63
2022-12-19T08:07:03.636Z,7.60
2022-12-19T08:09:50.591Z,7.43
2022-12-19T08:12:37.722Z,7.80
2022-12-19T08:15:25.168Z,8.13
2022-12-19T08:18:12.706Z,7.20
2022-12-19T08:20:39.876Z,8.10
2022-12-19T08:23:07.054Z,8.13
2022-12-19T08:25:34.267Z,7.23
2022-12-19T08:28:01.381Z,7.87
2022-12-19T08:30:28.608Z,7.17
2022-12-19T08:32:55.886Z,7.73
2022-12-19T08:35:23.181Z,7.47
2022-12-19T08:37:50.397Z,7.73
2022-12-19T08:40:17.705Z,7.87
2022-12-19T08:42:44.861Z,8.13
2022-12-19T08:45:12.516Z,7.27
2022-12-19T08:47:39.924Z,8.70
2022-12-19T08:50:08.036Z,8.13
2022-12-19T08:52:35.303Z,9.37
2022-12-19T08:55:05.945Z,9.60
2022-12-19T08:57:33.053Z,9.80
2022-12-19T09:00:00.262Z,9.63
2022-12-19T09:02:28.360Z,9.60
2022-12-19T09:06:03.783Z,9.13
2022-12-19T09:07:42.746Z,9.83
2022-12-19T09:10:10.106Z,11.17
2022-12-19T09:12:38.077Z,10.53
2022-12-19T09:15:05.685Z,10.27
2022-12-19T09:17:32.875Z,10.17
2022-12-19T09:20:00.043Z,10.80
2022-12-19T09:22:29.552Z,9.80
2022-12-19T09:24:56.899Z,11.20
2022-12-19T09:27:24.725Z,10.03
2022-12-19T09:29:51.918Z,10.87
2022-12-19T09:32:19.078Z,10.97
2022-12-19T09:34:46.253Z,11.33
2022-12-19T09:37:17.010Z,10.07
2022-12-19T09:39:47.370Z,11.17
2022-12-19T09:42:32.417Z,9.80
2022-12-19T09:45:32.608Z,10.30
2022-12-19T09:48:01.739Z,9.90
2022-12-19T09:50:52.190Z,10.03
2022-12-19T09:53:45.090Z,9.13
2022-12-19T09:56:23.706Z,9.80
2022-12-19T09:59:04.951Z,9.20
2022-12-19T10:01:37.780Z,8.50
2022-12-19T10:04:18.476Z,8.47
2022-12-19T10:07:13.393Z,8.43
2022-12-19T10:12:27.006Z,7.80
2022-12-19T10:12:49.327Z,7.50
2022-12-19T10:15:59.814Z,7.50
2022-12-19T10:19:04.678Z,7.70
2022-12-19T10:22:19.749Z,7.50
2022-12-19T10:25:16.714Z,6.80
2022-12-19T10:28:00.454Z,6.40
2022-12-19T10:30:33.289Z,6.17
2022-12-19T10:33:25.942Z,5.47
2022-12-19T10:36:01.833Z,6.00
2022-12-19T10:38:51.539Z,5.17
2022-12-19T10:41:25.924Z,4.90
2022-12-19T10:44:10.286Z,4.73
2022-12-19T10:46:42.739Z,4.70
2022-12-19T10:49:25.779Z,4.33
2022-12-19T10:52:04.707Z,4.60
2022-12-19T10:54:37.761Z,4.27
2022-12-19T10:57:23.013Z,4.20
2022-12-19T11:00:04.221Z,4.40
2022-12-19T11:02:46.186Z,4.10
2022-12-19T11:05:24.481Z,4.17
2022-12-19T11:08:41.118Z,4.20
2022-12-19T11:12:39.107Z,4.73
2022-12-19T11:18:57.067Z,4.90
2022-12-19T11:21:51.916Z,4.43
2022-12-19T11:29:19.662Z,4.77
2022-12-19T11:29:24.990Z,4.73
2022-12-19T11:29:47.129Z,4.80
2022-12-19T11:30:36.555Z,4.93
2022-12-19T11:34:13.978Z,5.20
2022-12-19T11:37:04.166Z,5.40
2022-12-19T11:40:03.005Z,5.10
2022-12-19T11:42:39.985Z,5.17
2022-12-19T11:45:43.930Z,4.80
2022-12-19T11:48:16.914Z,5.23
2022-12-19T11:51:09.744Z,5.83
2022-12-19T11:53:53.123Z,5.97
2022-12-19T11:56:24.819Z,5.70
2022-12-19T11:58:56.706Z,5.60
2022-12-19T12:01:45.715Z,6.30
2022-12-19T12:04:31.535Z,6.33
2022-12-19T12:07:00.067Z,6.53
2022-12-19T12:12:37.211Z,6.37
2022-12-19T12:21:23.074Z,5.50
2022-12-19T12:30:12.855Z,5.77
2022-12-19T12:31:21.108Z,6.93
2022-12-19T12:31:46.813Z,6.33
2022-12-19T12:31:51.389Z,7.10
2022-12-19T12:31:53.908Z,7.17
2022-12-19T12:35:30.668Z,6.43
2022-12-19T12:35:56.306Z,6.53
2022-12-19T12:38:21.400Z,7.10
2022-12-19T12:40:52.084Z,6.87
2022-12-19T12:43:36.939Z,7.83
2022-12-19T12:46:06.008Z,6.93
2022-12-19T12:48:51.592Z,7.80
2022-12-19T12:51:18.987Z,7.47
2022-12-19T12:53:48.077Z,7.33
2022-12-19T12:56:18.041Z,6.80
2022-12-19T12:58:48.755Z,7.33
2022-12-19T13:01:20.412Z,7.67
2022-12-19T13:04:07.817Z,7.77
2022-12-19T13:06:51.375Z,7.30
2022-12-19T13:09:22.362Z,8.00
2022-12-19T13:12:19.164Z,7.60
2022-12-19T13:14:52.025Z,7.87
2022-12-19T13:17:48.034Z,8.00
2022-12-19T13:20:27.782Z,8.27
2022-12-19T13:22:58.453Z,7.90
2022-12-19T13:25:49.823Z,7.90
2022-12-19T13:28:38.942Z,8.10
2022-12-19T13:31:19.696Z,8.30
2022-12-19T13:33:53.618Z,7.63
2022-12-19T13:39:50.088Z,7.70
2022-12-19T13:40:11.169Z,7.97
2022-12-19T13:43:13.582Z,8.03
2022-12-19T13:45:48.177Z,7.03
2022-12-19T13:48:27.277Z,7.93
2022-12-19T13:50:55.733Z,7.73
2022-12-19T13:53:25.402Z,8.10
2022-12-19T13:56:00.792Z,7.87
2022-12-19T13:58:50.933Z,8.20
2022-12-19T14:01:28.972Z,7.80
2022-12-19T14:03:59.311Z,7.50
2022-12-19T14:06:44.589Z,7.80
2022-12-19T14:11:35.271Z,7.70
2022-12-19T14:13:57.588Z,7.97
2022-12-19T14:15:39.071Z,7.43
2022-12-19T14:18:42.549Z,8.00
2022-12-19T14:22:05.227Z,7.47
2022-12-19T14:24:16.004Z,8.57
2022-12-19T14:28:25.081Z,7.90
2022-12-19T14:30:28.681Z,8.17
2022-12-19T14:33:46.021Z,7.93
2022-12-19T14:36:06.443Z,7.70
2022-12-19T14:39:23.220Z,7.60
2022-12-19T14:41:08.577Z,8.53
2022-12-19T14:43:59.515Z,8.47
2022-12-19T14:52:34.428Z,8.10
2022-12-19T14:54:05.505Z,8.80
2022-12-19T14:54:32.221Z,8.83
2022-12-19T14:56:04.659Z,9.50
2022-12-19T14:58:52.802Z,9.63
2022-12-19T15:01:32.316Z,9.20
2022-12-19T15:04:51.346Z,9.93
2022-12-19T15:07:08.494Z,10.03
2022-12-19T15:10:58.250Z,9.87
2022-12-19T15:14:51.085Z,9.83
2022-12-19T15:16:03.965Z,10.60
2022-12-19T15:18:34.324Z,10.73
2022-12-19T15:21:04.334Z,11.20
2022-12-19T15:23:32.454Z,11.00
2022-12-19T15:26:07.270Z,10.53
2022-12-19T15:28:50.331Z,11.63
2022-12-19T15:31:40.733Z,11.23
2022-12-19T15:36:58.679Z,11.47
2022-12-19T15:39:29.569Z,11.17
2022-12-19T15:41:59.473Z,11.30
2022-12-19T15:44:41.575Z,12.10
2022-12-19T15:47:19.807Z,11.80
2022-12-19T15:49:47.343Z,11.07
2022-12-19T15:52:18.045Z,11.50
2022-12-19T15:54:50.067Z,11.03
2022-12-19T15:57:32.672Z,11.50
2022-12-19T16:00:07.732Z,10.33
2022-12-19T16:03:20.655Z,10.23
2022-12-19T16:05:26.341Z,10.10
2022-12-19T16:07:53.710Z,10.80
2022-12-19T16:10:22.013Z,10.47
2022-12-19T16:12:55.707Z,10.50
2022-12-19T16:15:31.346Z,10.27
2022-12-19T16:17:59.779Z,10.83
2022-12-19T16:20:30.060Z,10.63
2022-12-19T16:22:58.045Z,10.50
2022-12-19T16:25:37.420Z,10.90
2022-12-19T16:28:10.030Z,11.20
2022-12-19T16:30:41.532Z,10.27
2022-12-19T16:33:21.603Z,10.47
2022-12-19T16:36:07.266Z,10.27
2022-12-19T16:38:35.702Z,9.80
2022-12-19T16:41:03.478Z,10.80
2022-12-19T16:43:35.811Z,10.67
2022-12-19T16:46:09.018Z,11.10
2022-12-19T16:48:38.113Z,10.47
2022-12-19T16:51:05.579Z,10.23
2022-12-19T16:53:33.527Z,10.27
2022-12-19T16:56:01.464Z,10.57
2022-12-19T16:58:30.757Z,10.40
2022-12-19T17:00:58.735Z,10.33
2022-12-19T17:03:41.725Z,10.87
2022-12-19T17:06:17.710Z,10.60
2022-12-19T17:08:45.786Z,10.97
2022-12-19T17:11:50.870Z,12.47
2022-12-19T17:14:22.111Z,11.27
2022-12-19T17:16:53.627Z,10.50
2022-12-19T17:19:32.376Z,10.87
2022-12-19T17:21:59.873Z,10.20
2022-12-19T17:24:27.320Z,11.27
2022-12-19T17:26:54.827Z,10.90
2022-12-19T17:29:22.378Z,10.50
2022-12-19T17:31:49.940Z,11.27
2022-12-19T17:34:32.460Z,10.13
2022-12-19T17:37:01.542Z,11.20
2022-12-19T17:39:31.317Z,10.57
2022-12-19T17:42:01.896Z,10.47
2022-12-19T17:44:29.825Z,11.60
2022-12-19T17:46:57.328Z,11.10
2022-12-19T17:49:32.438Z,11.00
2022-12-19T17:52:01.111Z,10.50
2022-12-19T17:54:30.604Z,11.43
2022-12-19T17:56:58.209Z,10.80
2022-12-19T17:59:25.597Z,10.57
2022-12-19T18:01:53.121Z,11.23
2022-12-19T18:04:25.189Z,11.40
2022-12-19T18:06:52.736Z,11.57
2022-12-19T18:09:22.332Z,11.50
2022-12-19T18:11:50.839Z,11.13
2022-12-19T18:14:19.388Z,11.77
2022-12-19T18:16:48.557Z,11.70
2022-12-19T18:19:24.970Z,11.57
2022-12-19T18:21:52.403Z,10.60
2022-12-19T18:24:19.776Z,12.03
2022-12-19T18:26:47.240Z,11.07
2022-12-19T18:29:14.983Z,11.70
2022-12-19T18:31:50.409Z,11.77
2022-12-19T18:34:24.519Z,11.87
2022-12-19T18:36:53.421Z,10.90
2022-12-19T18:39:29.427Z,11.73
2022-12-19T18:41:57.189Z,11.00
2022-12-19T18:44:24.682Z,10.90
2022-12-19T18:46:53.011Z,11.70
2022-12-19T18:49:23.181Z,11.40
2022-12-19T18:51:51.572Z,11.13
2022-12-19T18:54:22.650Z,12.13
2022-12-19T18:56:50.252Z,12.03
2022-12-19T18:59:17.698Z,11.77
2022-12-19T19:01:47.208Z,11.80
2022-12-19T19:04:18.564Z,12.13
2022-12-19T19:06:51.465Z,12.43
2022-12-19T19:09:22.960Z,12.90
2022-12-19T19:11:57.576Z,13.07
2022-12-19T19:14:47.332Z,12.73
2022-12-19T19:18:01.955Z,12.60
2022-12-19T19:20:40.529Z,12.37
2022-12-19T19:23:12.892Z,12.80
2022-12-19T19:25:42.234Z,14.63
2022-12-19T19:31:39.306Z,13.33
2022-12-19T19:34:25.153Z,13.67
2022-12-19T19:36:56.187Z,13.93
2022-12-19T19:39:24.262Z,15.70
2022-12-19T19:41:52.099Z,15.67
2022-12-19T19:44:20.249Z,16.10
2022-12-19T19:46:48.177Z,16.13
2022-12-19T19:49:15.832Z,16.50
2022-12-19T19:51:43.081Z,17.67
2022-12-19T19:54:10.281Z,16.53
2022-12-19T19:56:50.118Z,17.20
2022-12-19T19:59:20.397Z,15.90
2022-12-19T20:01:48.228Z,15.63
2022-12-19T20:04:16.456Z,15.63
2022-12-19T20:06:44.209Z,13.77
2022-12-19T20:09:11.439Z,14.77
2022-12-19T20:11:38.779Z,15.43
2022-12-19T20:14:06.064Z,14.30
2022-12-19T20:16:33.896Z,15.00
2022-12-19T20:19:01.967Z,14.33
2022-12-19T20:21:30.923Z,14.20
2022-12-19T20:23:58.105Z,13.77
2022-12-19T20:26:25.497Z,14.63
2022-12-19T20:28:52.858Z,14.20
2022-12-19T20:31:24.030Z,15.07
2022-12-19T20:33:53.841Z,14.60
2022-12-19T20:36:21.711Z,14.83
2022-12-19T20:38:49.327Z,13.73
2022-12-19T20:41:17.523Z,13.67
2022-12-19T20:43:45.523Z,15.10
2022-12-19T20:46:15.866Z,14.37
2022-12-19T20:48:43.668Z,14.07
2022-12-19T20:51:12.053Z,14.03
2022-12-19T20:53:39.859Z,14.33
2022-12-19T20:56:08.122Z,14.00
2022-12-19T20:58:38.596Z,13.70
2022-12-19T21:01:12.536Z,14.13
2022-12-19T21:03:40.821Z,14.83
2022-12-19T21:06:09.830Z,14.67
2022-12-19T21:08:37.235Z,14.30
2022-12-19T21:11:05.477Z,14.50
2022-12-19T21:13:33.245Z,13.77
2022-12-19T21:16:03.239Z,14.93
2022-12-19T21:18:30.954Z,15.30
2022-12-19T21:20:59.490Z,14.60
2022-12-19T21:23:27.169Z,15.03
2022-12-19T21:26:00.493Z,14.97
2022-12-19T21:28:28.635Z,15.50
2022-12-19T21:31:02.215Z,15.10
2022-12-19T21:33:29.592Z,15.03
2022-12-19T21:35:57.016Z,14.03
2022-12-19T21:38:24.907Z,13.90
2022-12-19T21:40:52.129Z,14.57
2022-12-19T21:43:19.216Z,13.60
2022-12-19T21:45:46.522Z,13.20
2022-12-19T21:48:13.664Z,14.17
2022-12-19T21:50:41.027Z,14.90
2022-12-19T21:53:09.003Z,14.63
2022-12-19T21:55:36.303Z,13.47
2022-12-19T21:58:03.420Z,14.33
2022-12-19T22:00:30.524Z,13.73
2022-12-19T22:03:14.773Z,14.13
2022-12-19T22:05:42.683Z,13.43
2022-12-19T22:08:10.767Z,12.97
2022-12-19T22:10:39.713Z,13.27
2022-12-19T22:13:06.793Z,12.77
2022-12-19T22:15:36.179Z,13.47
2022-12-19T22:18:03.319Z,13.73
2022-12-19T22:20:30.418Z,14.33
2022-12-19T22:22:57.643Z,13.37
2022-12-19T22:25:24.717Z,12.83
2022-12-19T22:27:54.924Z,12.73
2022-12-19T22:30:22.077Z,12.93
2022-12-19T22:32:49.128Z,12.37
2022-12-19T22:35:16.365Z,12.67
2022-12-19T22:37:43.998Z,12.67
2022-12-19T22:40:13.172Z,13.23
2022-12-19T22:42:40.330Z,12.73
2022-12-19T22:45:08.064Z,12.40
2022-12-19T22:47:35.853Z,12.40
2022-12-19T22:50:03.021Z,12.27
2022-12-19T22:52:30.719Z,12.17
2022-12-19T22:54:57.812Z,12.67
2022-12-19T22:57:24.919Z,13.53
2022-12-19T22:59:52.064Z,11.83
2022-12-19T23:02:19.312Z,12.30
2022-12-19T23:04:46.518Z,12.20
2022-12-19T23:07:13.668Z,12.40
2022-12-19T23:09:40.821Z,11.80
2022-12-19T23:12:08.070Z,11.93
2022-12-19T23:14:35.206Z,12.00
2022-12-19T23:17:02.379Z,12.10
2022-12-19T23:19:29.491Z,11.67
2022-12-19T23:21:56.650Z,12.63
2022-12-19T23:24:24.044Z,12.10
2022-12-19T23:26:53.226Z,11.47
2022-12-19T23:29:20.555Z,11.40
2022-12-19T23:31:47.825Z,12.07
2022-12-19T23:34:16.016Z,10.90
2022-12-19T23:37:10.096Z,11.50
2022-12-19T23:39:30.260Z,11.37
2022-12-19T23:41:57.429Z,10.87
2022-12-19T23:44:24.881Z,11.10
2022-12-19T23:46:51.997Z,11.43
2022-12-19T23:49:19.108Z,10.20
2022-12-19T23:51:46.191Z,11.13
2022-12-19T23:54:13.350Z,9.63
2022-12-19T23:56:40.525Z,10.80
2022-12-19T23:59:07.667Z,10.37
